CYMM

Details ICAO CYMM (YMM)
Name FORT MCMURRAY
Region Canada
Timezone America/Edmonton (UTC-7.0)
Plans Departing 36
Arriving 35
Stats Elevation 1,211 ft / 369 m (AMSL)
Location 56.652639° -111.221950°
Runways 1
Magnetic Variation 13.755° E
Sunrise 2017-12-12 15:53:23 UTC / 2017-12-12 08:53:23 Local
Sunset 2017-12-12 22:47:00 UTC / 2017-12-12 15:47:00 Local
Advertisement - Login to hide

Runways

ID Width Length Bearing (true) Bearing (mag) Surface Threshold Offset Overrun Length
07 150 ft / 46 m 6,019 ft / 1,835 m 89.02° 75.26° Asphalt 0 ft / 0 m 0 ft / 0 m
25 150 ft / 46 m 6,019 ft / 1,835 m 269.05° 255.29° Asphalt 0 ft / 0 m 0 ft / 0 m

Approach Navaids

Runway Type Ident Frequency Range Bearing (true) Bearing (mag) Slope Elevation
25 Localiser IMM 109.90 MHz 18 nm / 33 km 268.96° 255.21° - 1,198 ft / 365 m (AMSL)
25 Glidescope IMM 109.90 MHz 10 nm / 19 km 269.03° 255.28° 3.00° 1,195 ft / 364 m (AMSL)

Map

Weather


0- 5 10 15 20 25 30 35+ Temperature / ° C

Clouds and Precipitation
Forecast for 2017-12-12 12:00 UTC. Updated an hour ago

Ground ~20,000 ft ~40,000 ft Winds

METAR

CYMM 121000Z AUTO 19005KT 9SM FEW240 00/M02 A2976 RMK SLP099

TAF

TAF CYMM 120638Z 1207/1219 22008KT P6SM BKN110 BECMG 1210/1212 27008KT SKC FM121500 29012G22KT P6SM SCT160 BKN250 RMK FCST BASED ON AUTO OBS. NXT FCST BY 121300Z

Frequencies

Recorded 128.50 MHz ATIS
Warning: Do not use this data for real-world aviation or navigation. No guarantee of current accuracy is given.